Time;durP1;ratioP1;P1;durP2;ratioP2;P2;SDS_P1;SDS_P2;PMS_P1;PMS_P2;Temp;Humidity;BMP_temperature;BMP_pressure;BME280_temperature;BME280_humidity;BME280_pressure;Samples;Min_cycle;Max_cycle;Signal;HPM_P1;HPM_P2
2022/04/07 00:02:06;;;;;;;5.20;1.25;;;18.10;64.80;;;;;;5033142;28;20030;-69
2022/04/07 00:04:32;;;;;;;4.45;1.23;;;18.10;64.80;;;;;;5033051;28;20078;-69
2022/04/07 00:06:58;;;;;;;3.88;1.00;;;18.10;64.80;;;;;;5033059;28;20480;-69
2022/04/07 00:09:23;;;;;;;1.77;1.13;;;18.00;64.80;;;;;;5031604;28;20492;-69
2022/04/07 00:11:49;;;;;;;4.03;1.42;;;18.00;64.70;;;;;;5032749;28;20136;-69
2022/04/07 00:14:14;;;;;;;3.53;1.20;;;18.00;64.70;;;;;;5031647;28;20086;-69
2022/04/07 00:16:40;;;;;;;3.33;1.13;;;18.00;64.70;;;;;;5032887;28;20032;-69
2022/04/07 00:19:06;;;;;;;2.05;0.85;;;18.00;64.80;;;;;;5032893;28;20163;-69
2022/04/07 00:21:46;;;;;;;4.38;0.90;;;18.00;64.80;;;;;;5031365;28;20557;-69
2022/04/07 00:24:12;;;;;;;1.17;0.77;;;18.00;64.80;;;;;;5032458;28;20017;-69
2022/04/07 00:26:37;;;;;;;2.20;1.13;;;18.00;64.80;;;;;;5032480;28;20087;-69
2022/04/07 00:29:04;;;;;;;1.88;0.70;;;18.00;64.80;;;;;;5032541;28;20021;-69
2022/04/07 00:31:38;;;;;;;1.63;0.90;;;18.00;64.90;;;;;;5031358;28;20032;-69
2022/04/07 00:34:05;;;;;;;2.55;0.80;;;18.00;64.80;;;;;;5028951;28;20455;-69
2022/04/07 00:36:31;;;;;;;2.90;1.05;;;18.00;64.80;;;;;;5012820;28;20022;-69
2022/04/07 00:38:56;;;;;;;3.58;0.95;;;18.00;64.90;;;;;;5011544;28;20096;-69
2022/04/07 00:41:22;;;;;;;3.10;0.98;;;18.00;64.80;;;;;;5011358;28;20420;-69
2022/04/07 00:43:51;;;;;;;2.75;0.98;;;18.00;64.90;;;;;;5012637;28;20489;-69
2022/04/07 00:46:17;;;;;;;2.95;1.00;;;18.00;64.80;;;;;;5012528;28;20030;-69
2022/04/07 00:48:42;;;;;;;4.88;1.08;;;18.00;64.90;;;;;;5011490;28;20033;-69
2022/04/07 00:51:08;;;;;;;3.85;1.05;;;18.00;64.90;;;;;;5012579;28;20448;-69
2022/04/07 00:53:34;;;;;;;3.67;1.10;;;18.00;64.90;;;;;;5010510;28;20026;-69
2022/04/07 00:56:01;;;;;;;2.78;1.08;;;17.90;64.80;;;;;;5011370;28;20022;-69
2022/04/07 00:58:28;;;;;;;3.70;1.02;;;17.90;64.80;;;;;;5011239;28;20100;-69
2022/04/07 01:00:54;;;;;;;5.13;1.35;;;17.90;64.80;;;;;;5011393;28;20022;-69
2022/04/07 01:03:19;;;;;;;2.20;0.60;;;17.90;64.80;;;;;;5012622;28;20025;-69
2022/04/07 01:05:45;;;;;;;2.85;1.27;;;17.90;64.80;;;;;;5011282;28;20030;-69
2022/04/07 01:08:10;;;;;;;3.10;1.05;;;17.90;64.90;;;;;;5011258;28;20030;-69
2022/04/07 01:10:37;;;;;;;2.42;1.00;;;17.90;64.80;;;;;;5011160;28;20033;-69
2022/04/07 01:13:03;;;;;;;3.33;1.05;;;17.90;64.90;;;;;;5011040;28;20037;-69
2022/04/07 01:15:29;;;;;;;3.88;1.10;;;17.90;64.90;;;;;;5011095;28;20404;-69
2022/04/07 01:17:55;;;;;;;4.72;1.05;;;17.90;64.90;;;;;;5012444;28;20033;-69
2022/04/07 01:20:21;;;;;;;2.45;1.00;;;17.90;64.90;;;;;;5012251;28;20025;-69
2022/04/07 01:22:47;;;;;;;3.35;0.90;;;17.90;64.90;;;;;;5010826;28;20034;-69
2022/04/07 01:25:13;;;;;;;2.85;0.80;;;17.90;64.90;;;;;;5011205;28;20492;-69
2022/04/07 01:27:39;;;;;;;3.00;0.82;;;17.90;65.00;;;;;;5024265;28;20034;-69
2022/04/07 01:30:05;;;;;;;4.25;1.42;;;17.90;65.00;;;;;;5032293;28;20031;-69
2022/04/07 01:32:41;;;;;;;2.55;0.98;;;17.90;65.00;;;;;;5030565;28;20041;-69
2022/04/07 01:35:07;;;;;;;5.35;1.10;;;17.90;65.00;;;;;;5019751;28;20026;-69
2022/04/07 01:37:33;;;;;;;2.20;0.88;;;17.90;65.00;;;;;;5010826;28;20081;-69
2022/04/07 01:39:59;;;;;;;2.25;0.90;;;17.90;65.00;;;;;;5011165;28;20541;-69
2022/04/07 01:42:25;;;;;;;3.20;1.13;;;17.90;65.00;;;;;;5011057;28;20029;-69
2022/04/07 01:44:52;;;;;;;2.80;1.27;;;17.90;65.10;;;;;;5010700;28;20385;-69
2022/04/07 01:47:20;;;;;;;2.63;0.77;;;17.90;65.00;;;;;;5010979;28;20022;-69
2022/04/07 01:49:46;;;;;;;1.08;0.77;;;17.90;65.10;;;;;;5010506;28;20018;-69
2022/04/07 01:52:12;;;;;;;4.05;0.95;;;17.90;65.00;;;;;;5010864;28;20518;-69
2022/04/07 01:54:38;;;;;;;3.35;0.80;;;17.90;65.10;;;;;;5010790;28;20018;-69
2022/04/07 01:57:04;;;;;;;3.40;0.82;;;17.90;65.10;;;;;;5010925;28;20049;-69
2022/04/07 01:59:29;;;;;;;2.38;0.88;;;17.90;65.10;;;;;;5010708;28;20076;-69
2022/04/07 02:01:55;;;;;;;2.53;0.68;;;17.90;65.10;;;;;;5010900;28;20061;-69
2022/04/07 02:04:21;;;;;;;2.10;0.70;;;17.90;65.10;;;;;;5011688;28;20053;-69
2022/04/07 02:06:46;;;;;;;1.77;0.70;;;17.90;65.10;;;;;;5015040;28;20109;-69
2022/04/07 02:09:12;;;;;;;2.45;0.85;;;17.90;65.10;;;;;;5014471;28;20030;-69
2022/04/07 02:11:38;;;;;;;2.85;0.80;;;17.90;65.10;;;;;;5015207;28;20468;-69
2022/04/07 02:14:03;;;;;;;2.30;0.85;;;17.90;65.10;;;;;;5015319;28;20079;-69
2022/04/07 02:16:30;;;;;;;2.88;0.70;;;17.90;65.20;;;;;;5015529;28;20030;-69
2022/04/07 02:18:56;;;;;;;1.95;0.90;;;17.90;65.20;;;;;;5014983;28;20068;-69
2022/04/07 02:21:21;;;;;;;0.65;0.55;;;17.90;65.20;;;;;;5014109;28;20101;-69
2022/04/07 02:23:47;;;;;;;1.00;0.65;;;17.90;65.20;;;;;;5014908;28;20030;-69
2022/04/07 02:26:13;;;;;;;2.63;0.80;;;17.90;65.20;;;;;;5015724;28;20032;-69
2022/04/07 02:28:39;;;;;;;1.40;0.65;;;17.90;65.20;;;;;;5033724;28;20064;-69
2022/04/07 02:31:06;;;;;;;2.83;0.88;;;17.90;65.30;;;;;;5033742;28;20057;-69
2022/04/07 02:33:34;;;;;;;2.08;0.90;;;17.80;65.20;;;;;;5033383;28;20031;-69
2022/04/07 02:36:06;;;;;;;2.97;0.93;;;17.90;65.30;;;;;;5016753;28;20025;-69
2022/04/07 02:38:32;;;;;;;3.88;0.80;;;17.80;65.30;;;;;;5013515;28;20061;-69
2022/04/07 02:40:57;;;;;;;2.28;0.70;;;17.80;65.20;;;;;;5013666;28;20057;-69
2022/04/07 02:43:23;;;;;;;1.33;0.65;;;17.80;65.30;;;;;;5013798;28;20070;-69
2022/04/07 02:45:48;;;;;;;2.72;0.80;;;17.80;66.30;;;;;;5014496;28;20084;-69
2022/04/07 02:48:14;;;;;;;1.70;0.80;;;17.80;65.30;;;;;;5013298;28;20515;-69
2022/04/07 02:50:40;;;;;;;2.15;0.70;;;17.80;65.30;;;;;;5014737;28;20033;-69
2022/04/07 02:53:05;;;;;;;2.10;0.85;;;17.80;65.30;;;;;;5014623;28;20473;-69
2022/04/07 02:55:31;;;;;;;1.80;0.77;;;17.80;65.30;;;;;;5014679;28;20519;-69
2022/04/07 02:58:00;;;;;;;1.38;0.52;;;17.80;65.30;;;;;;5014811;28;20026;-69
2022/04/07 03:00:25;;;;;;;2.85;0.98;;;17.80;65.30;;;;;;5013315;28;20022;-69
2022/04/07 03:02:51;;;;;;;1.20;0.60;;;17.80;65.40;;;;;;5012874;28;20033;-69
2022/04/07 03:05:17;;;;;;;1.63;0.50;;;17.80;65.30;;;;;;5013296;28;20045;-69
2022/04/07 03:07:42;;;;;;;1.25;0.60;;;17.80;65.30;;;;;;5014391;28;20036;-69
2022/04/07 03:10:08;;;;;;;2.72;0.70;;;17.80;65.40;;;;;;5013243;28;20030;-69
2022/04/07 03:12:34;;;;;;;2.67;0.70;;;17.80;65.30;;;;;;5013025;28;20037;-69
2022/04/07 03:15:00;;;;;;;1.25;0.60;;;17.80;65.40;;;;;;5014102;28;20018;-69
2022/04/07 03:17:26;;;;;;;1.40;0.50;;;17.80;65.50;;;;;;5013657;28;20049;-69
2022/04/07 03:19:51;;;;;;;2.80;0.80;;;17.80;65.50;;;;;;5012906;28;20032;-69
2022/04/07 03:22:18;;;;;;;2.67;0.50;;;17.80;65.40;;;;;;5014120;28;20026;-69
2022/04/07 03:24:47;;;;;;;1.65;0.63;;;17.80;65.50;;;;;;5012926;28;20172;-69
2022/04/07 03:27:13;;;;;;;1.63;0.60;;;17.80;65.40;;;;;;5024145;28;20052;-69
2022/04/07 03:29:39;;;;;;;2.03;0.80;;;17.80;65.40;;;;;;5033601;28;20503;-69
2022/04/07 03:32:05;;;;;;;1.25;0.70;;;17.80;65.40;;;;;;5033518;28;20021;-69
2022/04/07 03:34:31;;;;;;;0.55;0.40;;;17.80;65.50;;;;;;5026529;28;20104;-69
2022/04/07 03:36:57;;;;;;;1.95;0.77;;;17.80;65.50;;;;;;5013719;28;20504;-69
2022/04/07 03:39:22;;;;;;;1.10;0.63;;;17.80;65.50;;;;;;5012738;28;20022;-69
2022/04/07 03:41:48;;;;;;;3.20;0.70;;;17.80;65.50;;;;;;5013613;28;20062;-69
2022/04/07 03:44:14;;;;;;;1.27;0.40;;;17.80;65.50;;;;;;5013519;28;20078;-69
2022/04/07 03:46:39;;;;;;;1.25;0.75;;;17.80;65.50;;;;;;5012387;28;20037;-69
2022/04/07 03:49:05;;;;;;;2.00;0.50;;;17.80;65.50;;;;;;5013542;28;20032;-69
2022/04/07 03:51:31;;;;;;;1.58;0.77;;;17.80;65.50;;;;;;5013611;28;20103;-69
2022/04/07 03:53:57;;;;;;;1.40;0.60;;;17.80;65.50;;;;;;5013401;28;20030;-69
2022/04/07 03:56:22;;;;;;;1.15;0.55;;;17.70;65.50;;;;;;5013491;28;20071;-69
2022/04/07 03:58:48;;;;;;;1.40;0.70;;;17.80;65.60;;;;;;5013268;28;20026;-69
2022/04/07 04:01:13;;;;;;;3.08;0.65;;;17.80;65.60;;;;;;5013288;28;20034;-69
2022/04/07 04:03:39;;;;;;;1.75;0.60;;;17.80;65.60;;;;;;5013309;28;20032;-69
2022/04/07 04:06:05;;;;;;;1.13;0.68;;;17.70;65.50;;;;;;5013181;28;20030;-69
2022/04/07 04:08:31;;;;;;;1.88;0.60;;;17.80;65.60;;;;;;5013361;28;20029;-69
2022/04/07 04:10:57;;;;;;;2.47;0.40;;;17.70;65.50;;;;;;5011860;28;20071;-69
2022/04/07 04:13:22;;;;;;;1.17;0.55;;;17.70;65.50;;;;;;5013266;28;20026;-69
2022/04/07 04:15:48;;;;;;;0.98;0.50;;;17.70;65.60;;;;;;5012909;28;20072;-69
2022/04/07 04:18:13;;;;;;;0.73;0.40;;;17.70;65.60;;;;;;5013054;28;20022;-69
2022/04/07 04:20:39;;;;;;;0.98;0.35;;;17.70;65.60;;;;;;5012005;28;20030;-69
2022/04/07 04:23:05;;;;;;;0.82;0.47;;;17.70;65.60;;;;;;5012811;28;20546;-69
2022/04/07 04:25:31;;;;;;;2.97;0.65;;;17.70;65.60;;;;;;5011903;28;20143;-69
2022/04/07 04:27:56;;;;;;;1.50;0.73;;;17.80;65.60;;;;;;5028569;28;20021;-69
2022/04/07 04:30:22;;;;;;;2.92;0.50;;;17.70;65.70;;;;;;5031591;28;20029;-69
2022/04/07 04:32:48;;;;;;;1.85;0.57;;;17.70;65.60;;;;;;5032461;28;20028;-69
2022/04/07 04:35:14;;;;;;;1.42;0.60;;;17.70;65.60;;;;;;5020788;28;20018;-69
2022/04/07 04:37:40;;;;;;;1.48;0.70;;;17.80;65.70;;;;;;5012761;28;20515;-69
2022/04/07 04:40:06;;;;;;;1.23;0.45;;;17.70;65.70;;;;;;5012616;28;20531;-69
2022/04/07 04:42:32;;;;;;;1.02;0.50;;;17.70;65.70;;;;;;5011531;28;20018;-69
2022/04/07 04:44:57;;;;;;;1.45;0.60;;;17.70;65.70;;;;;;5010986;28;20053;-69
2022/04/07 04:47:23;;;;;;;1.50;0.98;;;17.70;65.70;;;;;;5012819;28;20076;-69
2022/04/07 04:49:48;;;;;;;2.35;0.90;;;17.70;65.70;;;;;;5012468;28;20029;-69
2022/04/07 04:52:14;;;;;;;1.25;0.60;;;17.70;65.70;;;;;;5012571;28;20077;-69
2022/04/07 04:54:40;;;;;;;2.25;0.60;;;17.70;65.70;;;;;;5012577;28;20034;-69
2022/04/07 04:57:06;;;;;;;2.35;0.65;;;17.70;65.70;;;;;;5011198;28;20060;-69
2022/04/07 04:59:32;;;;;;;1.20;0.57;;;17.70;65.70;;;;;;5012338;28;20022;-69
2022/04/07 05:01:57;;;;;;;1.10;0.88;;;17.70;65.70;;;;;;5012476;28;20029;-69
2022/04/07 05:04:23;;;;;;;1.65;0.63;;;17.70;65.70;;;;;;5012942;28;20072;-69
2022/04/07 05:06:49;;;;;;;2.53;0.85;;;17.70;65.70;;;;;;5012497;28;20061;-69
2022/04/07 05:09:14;;;;;;;1.33;0.55;;;17.70;65.70;;;;;;5012505;28;20100;-69
2022/04/07 05:11:40;;;;;;;2.63;0.77;;;17.70;65.70;;;;;;5012490;28;20109;-69
2022/04/07 05:14:05;;;;;;;1.48;0.70;;;17.70;65.70;;;;;;5011968;28;20056;-69
2022/04/07 05:16:31;;;;;;;1.17;0.60;;;17.70;65.70;;;;;;5012415;28;20484;-69
2022/04/07 05:18:57;;;;;;;2.70;0.95;;;17.70;65.70;;;;;;5011182;28;20477;-69
2022/04/07 05:21:22;;;;;;;1.08;0.55;;;17.70;65.80;;;;;;5012343;28;20030;-69
2022/04/07 05:23:48;;;;;;;2.63;0.65;;;17.70;65.80;;;;;;5012174;28;20443;-69
2022/04/07 05:26:14;;;;;;;1.92;0.80;;;17.70;65.70;;;;;;5014309;28;20030;-69
2022/04/07 05:28:40;;;;;;;1.73;0.60;;;17.70;65.80;;;;;;5031779;28;20021;-69
2022/04/07 05:31:06;;;;;;;2.13;0.85;;;17.70;65.80;;;;;;5030806;28;20037;-69
2022/04/07 05:33:32;;;;;;;2.30;0.70;;;17.70;65.80;;;;;;5030933;28;20075;-69
2022/04/07 05:35:57;;;;;;;2.95;0.77;;;17.70;65.80;;;;;;5030462;28;20029;-69
2022/04/07 05:38:23;;;;;;;3.90;1.20;;;17.70;65.80;;;;;;5031911;28;20392;-69
2022/04/07 05:40:49;;;;;;;1.92;0.70;;;17.70;65.80;;;;;;5032548;28;20033;-69
2022/04/07 05:43:14;;;;;;;3.10;1.20;;;17.70;65.80;;;;;;5035537;28;20022;-69
2022/04/07 05:45:42;;;;;;;1.67;0.75;;;17.70;65.80;;;;;;5017908;28;20097;-69
2022/04/07 05:48:08;;;;;;;2.15;0.80;;;17.70;65.80;;;;;;5034375;28;20872;-69
2022/04/07 05:50:34;;;;;;;2.45;0.65;;;17.70;65.90;;;;;;5034416;28;20488;-69
2022/04/07 05:52:59;;;;;;;2.38;0.80;;;17.70;65.80;;;;;;5035309;28;20025;-69
2022/04/07 05:55:25;;;;;;;1.63;0.65;;;17.70;65.80;;;;;;5035700;28;20079;-69
2022/04/07 05:57:51;;;;;;;2.88;0.90;;;17.70;65.90;;;;;;5035285;28;20045;-69
2022/04/07 06:00:18;;;;;;;3.50;1.05;;;17.70;65.90;;;;;;5035333;28;20026;-69
2022/04/07 06:02:44;;;;;;;2.45;0.80;;;17.70;65.80;;;;;;5018039;28;20027;-69
2022/04/07 06:05:10;;;;;;;2.17;0.73;;;17.70;65.80;;;;;;5034037;28;20029;-69
2022/04/07 06:07:36;;;;;;;1.38;0.63;;;17.70;65.80;;;;;;5034347;28;20025;-69
2022/04/07 06:10:03;;;;;;;2.10;1.02;;;17.70;65.80;;;;;;5033921;28;20104;-69
2022/04/07 06:12:29;;;;;;;2.58;0.80;;;17.70;65.90;;;;;;5017488;28;20045;-69
2022/04/07 06:14:55;;;;;;;2.63;0.90;;;17.70;65.90;;;;;;5034973;28;20131;-69
2022/04/07 06:17:30;;;;;;;1.92;0.80;;;17.70;65.90;;;;;;5035300;28;20437;-69
2022/04/07 06:19:56;;;;;;;2.90;1.10;;;17.70;65.90;;;;;;5034122;28;20032;-69
2022/04/07 06:22:21;;;;;;;3.17;1.05;;;17.70;65.90;;;;;;5035065;28;20108;-69
2022/04/07 06:24:47;;;;;;;2.13;1.10;;;17.70;66.00;;;;;;5034742;28;20048;-69
2022/04/07 06:27:12;;;;;;;3.17;0.70;;;17.70;65.90;;;;;;5034703;28;20502;-69
2022/04/07 06:29:38;;;;;;;1.98;0.70;;;17.70;65.90;;;;;;5034813;28;20040;-69
2022/04/07 06:32:04;;;;;;;2.97;0.82;;;17.70;66.00;;;;;;5034748;28;20040;-69
2022/04/07 06:34:30;;;;;;;2.22;1.02;;;17.70;66.00;;;;;;5029084;28;20072;-69
2022/04/07 06:36:56;;;;;;;2.28;0.80;;;17.70;66.00;;;;;;5014781;28;20022;-69
2022/04/07 06:39:21;;;;;;;1.65;0.93;;;17.70;66.00;;;;;;5014708;28;20119;-69
2022/04/07 06:41:47;;;;;;;2.60;1.10;;;17.70;66.00;;;;;;5014825;28;20431;-69
2022/04/07 06:44:13;;;;;;;1.40;0.63;;;17.70;66.00;;;;;;5014482;28;20119;-69
2022/04/07 06:46:38;;;;;;;1.38;0.65;;;17.60;65.90;;;;;;5014792;28;20060;-69
2022/04/07 06:49:04;;;;;;;1.73;0.68;;;17.70;66.00;;;;;;5014592;28;20534;-69
2022/04/07 06:51:29;;;;;;;1.98;0.85;;;17.60;66.00;;;;;;5014052;28;20033;-69
2022/04/07 06:53:55;;;;;;;1.85;0.93;;;17.60;66.00;;;;;;5014061;28;20030;-69
2022/04/07 06:56:21;;;;;;;3.53;0.80;;;17.60;66.00;;;;;;5014518;28;20121;-69
2022/04/07 06:58:46;;;;;;;2.80;0.75;;;17.60;65.90;;;;;;5014658;28;20507;-69
2022/04/07 07:01:12;;;;;;;0.95;0.60;;;17.60;65.90;;;;;;5014308;28;20026;-69
2022/04/07 07:03:38;;;;;;;1.85;0.80;;;17.60;65.90;;;;;;5014760;28;20026;-69
2022/04/07 07:06:03;;;;;;;1.67;0.80;;;17.60;65.90;;;;;;5014530;28;20072;-69
2022/04/07 07:08:29;;;;;;;3.03;0.80;;;17.60;66.00;;;;;;5014341;28;20064;-69
2022/04/07 07:10:56;;;;;;;2.22;0.90;;;17.60;66.00;;;;;;5014898;28;20033;-69
2022/04/07 07:13:22;;;;;;;2.97;0.80;;;17.60;66.00;;;;;;5033599;28;20079;-69
2022/04/07 07:15:48;;;;;;;1.95;0.82;;;17.60;66.00;;;;;;5033261;28;20372;-69
2022/04/07 07:18:14;;;;;;;0.88;0.50;;;17.70;67.10;;;;;;5031640;28;20025;-69
2022/04/07 07:20:40;;;;;;;1.40;0.80;;;17.70;66.10;;;;;;5032784;28;20430;-69
2022/04/07 07:23:07;;;;;;;2.53;0.70;;;17.70;66.10;;;;;;5033389;28;20086;-69
2022/04/07 07:25:33;;;;;;;2.63;0.80;;;17.60;65.90;;;;;;5032553;28;20404;-69
2022/04/07 07:27:59;;;;;;;1.13;0.52;;;17.70;67.10;;;;;;5033737;28;20029;-69
2022/04/07 07:30:25;;;;;;;2.00;0.55;;;17.70;66.00;;;;;;5032456;28;20025;-70
2022/04/07 07:32:51;;;;;;;1.70;0.50;;;17.60;66.00;;;;;;5032519;28;20033;-70
2022/04/07 07:35:17;;;;;;;1.77;0.70;;;17.60;65.90;;;;;;5019806;28;20022;-72
2022/04/07 07:37:56;;;;;;;3.05;0.70;;;17.60;65.70;;;;;;5034326;28;20487;-72
2022/04/07 07:40:23;;;;;;;2.72;1.05;;;17.60;65.50;;;;;;5018860;28;20377;-72
2022/04/07 07:42:49;;;;;;;2.25;0.70;;;17.60;65.50;;;;;;5052161;28;20024;-69
2022/04/07 07:45:16;;;;;;;3.42;0.80;;;17.50;65.40;;;;;;5044191;28;20049;-73
2022/04/07 07:47:41;;;;;;;2.35;0.80;;;17.50;65.40;;;;;;5032061;28;20033;-73
2022/04/07 07:50:07;;;;;;;2.42;0.95;;;17.50;65.20;;;;;;5032016;28;20026;-72
2022/04/07 07:52:33;;;;;;;2.78;0.90;;;17.40;65.10;;;;;;5032918;28;20083;-73
2022/04/07 07:54:59;;;;;;;3.58;0.95;;;17.40;65.10;;;;;;5033208;28;20032;-73
2022/04/07 07:57:25;;;;;;;2.28;0.82;;;17.30;64.90;;;;;;5053023;28;20031;-73
2022/04/07 07:59:51;;;;;;;2.70;0.80;;;17.30;64.90;;;;;;5053083;28;20048;-74
2022/04/07 08:02:18;;;;;;;2.15;0.90;;;17.30;64.80;;;;;;5052754;28;20057;-73
2022/04/07 08:04:44;;;;;;;3.85;0.90;;;17.20;64.70;;;;;;5053060;28;20021;-73
2022/04/07 08:07:10;;;;;;;3.17;0.77;;;17.20;64.70;;;;;;5051369;28;20044;-72
2022/04/07 08:09:36;;;;;;;3.30;1.13;;;17.20;64.60;;;;;;5044425;28;20385;-73
2022/04/07 08:12:02;;;;;;;4.75;1.10;;;17.20;64.60;;;;;;5032921;28;20060;-72
2022/04/07 08:14:28;;;;;;;3.50;1.50;;;17.10;64.50;;;;;;5036251;28;20029;-70
2022/04/07 08:16:54;;;;;;;2.97;1.15;;;17.10;64.50;;;;;;5036457;28;20024;-70
2022/04/07 08:19:20;;;;;;;2.53;0.77;;;17.10;64.40;;;;;;5048860;28;20025;-70
2022/04/07 08:21:47;;;;;;;5.35;1.30;;;17.00;64.30;;;;;;5014160;28;20029;-70
2022/04/07 08:24:12;;;;;;;4.85;1.00;;;17.00;64.30;;;;;;5036628;28;20394;-70
2022/04/07 08:26:38;;;;;;;9.02;1.85;;;17.00;64.20;;;;;;5035490;28;20112;-71
2022/04/07 08:29:04;;;;;;;5.15;1.30;;;17.00;64.20;;;;;;5032106;28;20026;-70
2022/04/07 08:31:30;;;;;;;5.32;1.50;;;16.90;64.10;;;;;;5032531;28;20063;-70
2022/04/07 08:33:56;;;;;;;5.63;1.30;;;16.90;64.00;;;;;;5046854;28;20124;-70
2022/04/07 08:36:22;;;;;;;5.20;1.17;;;16.90;64.10;;;;;;5031958;28;20104;-70
2022/04/07 08:38:48;;;;;;;7.32;1.52;;;16.80;64.90;;;;;;5032376;28;20021;-70
2022/04/07 08:41:14;;;;;;;7.28;1.38;;;16.80;63.90;;;;;;5032486;28;20399;-70
2022/04/07 08:43:40;;;;;;;3.60;1.25;;;16.80;63.80;;;;;;5031316;28;20018;-71
2022/04/07 08:46:12;;;;;;;4.10;1.05;;;16.80;63.80;;;;;;5031124;28;20054;-70
2022/04/07 08:48:42;;;;;;;6.38;1.00;;;16.80;63.70;;;;;;5014735;28;20418;-70
2022/04/07 08:51:08;;;;;;;7.18;1.35;;;16.70;63.70;;;;;;5030930;28;20395;-70
2022/04/07 08:53:34;;;;;;;7.55;1.45;;;16.70;63.70;;;;;;5032058;28;20022;-71
2022/04/07 08:56:04;;;;;;;7.53;1.85;;;16.70;63.70;;;;;;5031343;28;20025;-71
2022/04/07 08:58:29;;;;;;;5.55;1.35;;;16.60;63.60;;;;;;5031114;28;20490;-69
2022/04/07 09:00:55;;;;;;;7.57;1.63;;;16.60;63.50;;;;;;5032273;28;20025;-72
2022/04/07 09:03:21;;;;;;;6.82;1.55;;;16.50;63.50;;;;;;5029658;28;20503;-71
2022/04/07 09:05:57;;;;;;;6.63;1.75;;;16.60;63.40;;;;;;5030523;28;20044;-71
2022/04/07 09:08:36;;;;;;;6.15;1.33;;;16.50;63.40;;;;;;5030810;28;20052;-70
2022/04/07 09:11:07;;;;;;;6.43;1.35;;;16.50;63.30;;;;;;5031076;28;20036;-70
2022/04/07 09:13:36;;;;;;;6.80;1.50;;;16.50;63.40;;;;;;5017440;28;20105;-70
2022/04/07 09:16:15;;;;;;;6.53;1.45;;;16.40;63.30;;;;;;5034310;28;20025;-70
2022/04/07 09:18:47;;;;;;;3.75;1.15;;;16.40;63.40;;;;;;5035814;28;20281;-70
2022/04/07 09:21:38;;;;;;;5.00;1.25;;;16.40;63.30;;;;;;5034865;28;20365;-71
2022/04/07 09:24:05;;;;;;;5.45;1.40;;;16.40;62.80;;;;;;5033725;28;20044;-71
2022/04/07 09:26:34;;;;;;;6.85;1.42;;;16.30;63.20;;;;;;5035281;28;20021;-72
2022/04/07 09:29:05;;;;;;;7.07;1.75;;;16.30;63.20;;;;;;5034956;28;20029;-70
2022/04/07 09:31:31;;;;;;;6.80;1.65;;;16.30;63.20;;;;;;5021927;28;20068;-72
2022/04/07 09:33:57;;;;;;;6.18;1.40;;;16.30;63.20;;;;;;5015829;28;20139;-71
2022/04/07 09:36:23;;;;;;;4.97;1.45;;;16.30;63.10;;;;;;5035785;28;20022;-71
2022/04/07 09:38:53;;;;;;;6.07;1.58;;;16.30;63.10;;;;;;5033118;28;20069;-72
2022/04/07 09:41:19;;;;;;;7.00;1.40;;;16.30;63.10;;;;;;5014758;28;20037;-71
2022/04/07 09:43:54;;;;;;;6.68;1.40;;;16.30;63.10;;;;;;5014839;28;20029;-71
2022/04/07 09:46:21;;;;;;;3.88;1.33;;;16.30;63.10;;;;;;5014676;28;20053;-71
2022/04/07 09:49:03;;;;;;;10.63;2.00;;;16.20;62.90;;;;;;5014530;28;20026;-71
2022/04/07 09:51:29;;;;;;;6.67;1.63;;;16.30;62.80;;;;;;5014552;28;20158;-71
2022/04/07 09:53:55;;;;;;;5.72;1.50;;;16.20;63.00;;;;;;5014767;28;20030;-72
2022/04/07 09:56:21;;;;;;;4.32;1.15;;;16.20;63.10;;;;;;5030635;28;20116;-74
2022/04/07 09:58:47;;;;;;;3.70;0.93;;;16.20;63.10;;;;;;5016342;28;20093;-71
2022/04/07 10:01:12;;;;;;;6.00;1.10;;;16.20;63.20;;;;;;5033782;28;20025;-71
2022/04/07 10:03:38;;;;;;;4.47;1.15;;;16.30;63.40;;;;;;5033731;28;20373;-72
2022/04/07 10:06:03;;;;;;;4.43;1.08;;;16.30;63.30;;;;;;5035438;28;20017;-71
2022/04/07 10:08:29;;;;;;;3.22;1.58;;;16.30;63.30;;;;;;5033896;28;20034;-71
2022/04/07 10:10:55;;;;;;;3.28;1.15;;;16.30;63.30;;;;;;5034132;28;20030;-70
2022/04/07 10:13:21;;;;;;;2.85;1.15;;;16.30;63.30;;;;;;5033763;28;20029;-70
2022/04/07 10:15:50;;;;;;;3.63;1.10;;;16.40;63.40;;;;;;5034883;28;20403;-72
2022/04/07 10:18:30;;;;;;;3.00;1.00;;;16.40;63.40;;;;;;5033694;28;20025;-71
2022/04/07 10:20:57;;;;;;;2.05;1.00;;;16.40;63.30;;;;;;5035086;28;20025;-71
2022/04/07 10:23:42;;;;;;;1.85;1.08;;;16.40;63.50;;;;;;5033770;28;20439;-70
2022/04/07 10:26:09;;;;;;;4.35;1.45;;;16.40;63.40;;;;;;5034173;28;20495;-70
2022/04/07 10:28:35;;;;;;;3.70;1.10;;;16.40;63.50;;;;;;5032821;28;20100;-71
2022/04/07 10:31:01;;;;;;;4.40;1.63;;;16.50;63.60;;;;;;5033619;28;20113;-71
2022/04/07 10:33:38;;;;;;;2.92;1.15;;;16.50;63.60;;;;;;5032977;28;20080;-71
2022/04/07 10:36:20;;;;;;;13.52;7.75;;;16.50;63.60;;;;;;5034909;28;20034;-71
2022/04/07 10:38:47;;;;;;;27.70;16.10;;;16.50;63.70;;;;;;5033507;28;20017;-71
2022/04/07 10:41:38;;;;;;;44.72;22.77;;;16.50;63.70;;;;;;5033731;28;20483;-71
2022/04/07 10:44:10;;;;;;;50.40;26.70;;;16.60;63.70;;;;;;5034500;28;20026;-71
2022/04/07 10:46:36;;;;;;;55.00;28.90;;;16.60;63.90;;;;;;5034543;28;20048;-70
2022/04/07 10:49:09;;;;;;;54.90;29.17;;;16.60;65.00;;;;;;5034567;28;20487;-69
2022/04/07 10:51:57;;;;;;;56.15;26.67;;;16.70;64.10;;;;;;5017342;28;20037;-69
2022/04/07 10:54:24;;;;;;;50.00;25.95;;;16.70;64.20;;;;;;5033102;28;20480;-68
2022/04/07 10:56:51;;;;;;;52.30;26.52;;;16.70;64.10;;;;;;5032992;28;20450;-69
2022/04/07 10:59:17;;;;;;;46.28;24.98;;;16.80;64.20;;;;;;5016823;28;20029;-69
2022/04/07 11:01:42;;;;;;;46.30;23.98;;;16.70;64.20;;;;;;5033893;28;20017;-69
2022/04/07 11:04:23;;;;;;;43.03;23.83;;;16.80;64.30;;;;;;5033892;28;20033;-69
2022/04/07 11:07:07;;;;;;;39.17;20.63;;;16.80;64.30;;;;;;5039652;28;20020;-69
2022/04/07 11:09:45;;;;;;;41.28;21.67;;;16.90;64.40;;;;;;5033955;28;20029;-68
2022/04/07 11:12:30;;;;;;;43.13;21.20;;;16.90;64.50;;;;;;5033963;28;20037;-69
2022/04/07 11:15:01;;;;;;;38.25;20.27;;;16.90;64.40;;;;;;5032652;28;20489;-70
2022/04/07 11:17:37;;;;;;;42.03;21.10;;;16.90;64.50;;;;;;5033878;28;20456;-70
2022/04/07 11:20:19;;;;;;;38.30;21.17;;;16.90;64.50;;;;;;5034009;28;20017;-70
2022/04/07 11:22:58;;;;;;;40.03;19.58;;;17.00;64.60;;;;;;5033824;28;20020;-69
2022/04/07 11:25:41;;;;;;;39.40;19.02;;;17.00;64.70;;;;;;5032692;28;20048;-69
2022/04/07 11:28:10;;;;;;;36.30;18.75;;;17.00;64.60;;;;;;5033638;28;20480;-69
2022/04/07 11:30:42;;;;;;;36.85;18.42;;;17.00;64.70;;;;;;5033481;28;20029;-69
2022/04/07 11:33:20;;;;;;;37.38;17.73;;;17.00;64.70;;;;;;5033724;28;20021;-69
2022/04/07 11:36:02;;;;;;;33.67;18.10;;;17.00;64.80;;;;;;5017478;28;20036;-68
2022/04/07 11:38:42;;;;;;;33.15;17.67;;;17.10;64.90;;;;;;5013249;28;20531;-68
2022/04/07 11:41:11;;;;;;;32.00;16.80;;;17.10;64.90;;;;;;5013690;28;20567;-69
2022/04/07 11:43:43;;;;;;;32.10;14.85;;;17.00;64.90;;;;;;5012474;28;20053;-68
2022/04/07 11:46:09;;;;;;;27.20;14.38;;;17.10;64.90;;;;;;5024464;28;20132;-68
2022/04/07 11:48:36;;;;;;;26.33;14.15;;;17.10;65.00;;;;;;5032202;28;20034;-68
2022/04/07 11:51:12;;;;;;;30.27;14.68;;;17.10;65.00;;;;;;5033454;28;20021;-68
2022/04/07 11:53:42;;;;;;;27.00;13.65;;;17.10;65.00;;;;;;5031736;28;20026;-69
2022/04/07 11:56:34;;;;;;;31.40;14.45;;;17.20;65.10;;;;;;5032075;28;20104;-72
2022/04/07 11:59:04;;;;;;;27.90;13.43;;;17.20;66.10;;;;;;5032881;28;20018;-72
2022/04/07 12:01:30;;;;;;;34.92;14.00;;;17.20;65.20;;;;;;5030880;28;20013;-72
2022/04/07 12:04:00;;;;;;;37.15;14.73;;;17.20;65.20;;;;;;5023269;28;20040;-72
2022/04/07 12:06:30;;;;;;;33.28;13.50;;;17.20;65.30;;;;;;5034184;28;20029;-72
2022/04/07 12:08:57;;;;;;;31.02;13.00;;;17.30;65.40;;;;;;5032643;28;20468;-72
2022/04/07 12:11:23;;;;;;;28.08;12.85;;;17.30;65.40;;;;;;5046275;28;20021;-71
2022/04/07 12:13:53;;;;;;;26.17;12.38;;;17.30;65.50;;;;;;5036611;28;20044;-72
2022/04/07 12:16:22;;;;;;;32.78;12.80;;;17.40;65.50;;;;;;5033005;28;20022;-72
2022/04/07 12:18:59;;;;;;;31.33;12.68;;;17.40;65.60;;;;;;5035980;28;20031;-71
2022/04/07 12:21:25;;;;;;;29.15;12.23;;;17.50;65.80;;;;;;5035952;28;20026;-71
2022/04/07 12:24:13;;;;;;;24.60;10.73;;;17.40;65.60;;;;;;5031683;28;20030;-72
2022/04/07 12:26:49;;;;;;;24.67;10.68;;;17.50;65.80;;;;;;5031331;28;20030;-72
2022/04/07 12:29:21;;;;;;;28.80;11.43;;;17.50;65.90;;;;;;5032746;28;20025;-72
2022/04/07 12:32:06;;;;;;;21.88;9.93;;;17.50;65.80;;;;;;5032515;28;20032;-71
2022/04/07 12:34:32;;;;;;;20.70;10.23;;;17.50;65.90;;;;;;5032522;28;20134;-70
2022/04/07 12:36:58;;;;;;;23.30;8.73;;;17.50;65.90;;;;;;5045794;28;20025;-71
2022/04/07 12:39:32;;;;;;;20.20;9.02;;;17.50;65.90;;;;;;5036794;28;20101;-70
2022/04/07 12:42:10;;;;;;;19.95;9.07;;;17.60;65.90;;;;;;5031132;28;20120;-70
2022/04/07 12:44:43;;;;;;;19.67;9.15;;;17.60;66.00;;;;;;5031098;28;20057;-70
2022/04/07 12:47:14;;;;;;;19.35;8.65;;;17.60;66.00;;;;;;5031190;28;20452;-70